< Cyclone 198903 1989 Season Cyclone 198905 >
Cyclone 198904 (KIRRILY)
General InformationTrack Information on Google MapsDetailed Wind InformationList of All Images || ResourceGoogle EarthGE AnimationAtom FeedGeoJSON
Detalied Best Track (Time Zone = UTC)
Year Month Day Hour Lat. Long. Pressure (hPa) Wind (kt) Class Image Chart
1989 2 3 12 -10.9 106.2 1006 0 0 Image --
1989 2 3 18 -10.5 106.5 1005 0 0 Image --
1989 2 4 00 -10.2 107.0 1004 0 0 Image --
1989 2 4 06 -10.4 107.4 1004 0 0 Image --
1989 2 4 12 -10.8 107.8 1004 0 0 Image --
1989 2 4 18 -11.1 108.1 1003 0 0 Image --
1989 2 5 00 -11.5 108.5 1002 21 2 Image --
1989 2 5 06 -11.7 108.8 1000 25 2 Image --
1989 2 5 12 -12.1 109.0 998 29 2 Image --
1989 2 5 18 -12.5 109.2 997 31 2 Image --
1989 2 6 00 -12.9 109.3 992 39 3 Image --
1989 2 6 06 -13.4 109.4 990 41 3 Image --
1989 2 6 12 -13.9 109.4 988 45 3 Image --
1989 2 6 18 -14.5 109.4 986 47 3 Image --
1989 2 7 00 -15.0 109.4 985 47 3 Image --
1989 2 7 06 -15.5 109.4 980 53 4 Image --
1989 2 7 12 -16.1 109.4 975 58 4 Image --
1989 2 7 18 -16.8 109.3 972 60 4 Image --
1989 2 8 00 -17.4 109.2 970 64 5 Image --
1989 2 8 06 -18.1 109.0 968 66 5 Image --
1989 2 8 12 -18.8 108.8 966 68 5 Image --
1989 2 8 18 -19.5 108.4 965 68 5 Image --
1989 2 9 00 -20.1 108.0 960 72 5 Image --
1989 2 9 06 -20.9 107.1 955 76 5 Image --
1989 2 9 12 -22.2 106.4 955 76 5 Image --
1989 2 9 18 -23.1 105.2 970 64 5 Image --
1989 2 10 00 -23.7 104.4 985 47 3 Image --
1989 2 10 06 -24.4 103.4 988 45 3 Image --
1989 2 10 12 -24.6 102.5 992 39 3 Image --
1989 2 10 18 -24.8 102.8 996 33 2 Image --
1989 2 11 00 -24.9 103.0 1000 25 2 Image --
1989 2 11 06 -24.3 102.0 1004 0 0 Image --
1989 2 11 12 -23.8 102.0 1008 0 0 Image --
< Cyclone 198903 1989 Season Cyclone 198905 >

Help